| time (UTC) | temp C | wind direction | speed KPH | gust KPH | rain 1hr cm | rain 24hr cm | rain mn cm | humidity % | barometer mb |
| 20260502214543 | 10 | 218 | 9.7 | 12.9 | 0.00 | 0.00 | 0.00 | 92 | 1012.4 |
| 20260502214042 | 10 | 219 | 8.0 | 11.3 | 0.00 | 0.00 | 0.00 | 93 | 1012.4 |
| 20260502213541 | 10 | 202 | 6.4 | 11.3 | 0.00 | 0.00 | 0.00 | 92 | 1012.5 |
| 20260502213042 | 10 | 205 | 8.0 | 11.3 | 0.00 | 0.00 | 0.00 | 92 | 1012.5 |
| 20260502212541 | 10 | 206 | 8.0 | 11.3 | 0.00 | 0.00 | 0.00 | 92 | 1012.4 |
| 20260502212041 | 10 | 193 | 6.4 | 11.3 | 0.00 | 0.00 | 0.00 | 92 | 1012.6 |
| 20260502211543 | 10 | 224 | 6.4 | 11.3 | 0.00 | 0.00 | 0.00 | 92 | 1012.6 |
| 20260502211045 | 10 | 220 | 6.4 | 11.3 | 0.00 | 0.00 | 0.00 | 92 | 1012.5 |
| 20260502210540 | 10 | 191 | 4.8 | 8.0 | 0.00 | 0.00 | 0.00 | 92 | 1012.4 |
| 20260502210042 | 10 | 212 | 6.4 | 8.0 | 0.00 | 0.00 | 0.00 | 92 | 1012.4 |
| 20260502205539 | 10 | 219 | 4.8 | 8.0 | 0.00 | 0.00 | 0.00 | 92 | 1012.5 |
| 20260502205039 | 10 | 219 | 4.8 | 9.7 | 0.00 | 0.00 | 0.00 | 93 | 1012.5 |
| 20260502204539 | 10 | 218 | 6.4 | 9.7 | 0.00 | 0.00 | 0.00 | 92 | 1012.6 |
| 20260502204039 | 10 | 231 | 4.8 | 9.7 | 0.00 | 0.00 | 0.00 | 93 | 1012.5 |
| 20260502203538 | 10 | 227 | 6.4 | 9.7 | 0.00 | 0.00 | 0.00 | 93 | 1012.6 |
| 20260502203052 | 10 | 219 | 6.4 | 9.7 | 0.00 | 0.00 | 0.00 | 93 | 1012.5 |
| 20260502202541 | 10 | 229 | 4.8 | 8.0 | 0.00 | 0.00 | 0.00 | 93 | 1012.6 |
| 20260502202037 | 10 | 237 | 6.4 | 9.7 | 0.00 | 0.00 | 0.00 | 93 | 1012.6 |
| 20260502201541 | 10 | 213 | 6.4 | 12.9 | 0.00 | 0.00 | 0.00 | 93 | 1012.7 |
| 20260502201036 | 10 | 228 | 8.0 | 12.9 | 0.00 | 0.00 | 0.00 | 93 | 1012.9 |
| 20260502200537 | 10 | 215 | 9.7 | 12.9 | 0.00 | 0.00 | 0.00 | 93 | 1012.9 |
| 20260502200035 | 10 | 217 | 9.7 | 12.9 | 0.00 | 0.00 | 0.00 | 93 | 1012.8 |
| 20260502195537 | 9 | 173 | 9.7 | 11.3 | 0.00 | 0.00 | 0.00 | 93 | 1012.9 |
| 20260502195033 | 9 | 194 | 9.7 | 11.3 | 0.00 | 0.00 | 0.00 | 93 | 1013.0 |
| 20260502194541 | 9 | 184 | 8.0 | 12.9 | 0.00 | 0.00 | 0.00 | 92 | 1013.1 |
| 20260502194032 | 9 | 169 | 9.7 | 12.9 | 0.00 | 0.00 | 0.00 | 92 | 1013.1 |
| 20260502193532 | 9 | 193 | 8.0 | 16.1 | 0.00 | 0.00 | 0.00 | 92 | 1013.1 |
| 20260502193033 | 9 | 194 | 11.3 | 16.1 | 0.00 | 0.00 | 0.00 | 92 | 1013.2 |
| 20260502192532 | 9 | 198 | 9.7 | 14.5 | 0.00 | 0.00 | 0.00 | 92 | 1013.2 |
| 20260502192029 | 9 | 179 | 9.7 | 12.9 | 0.00 | 0.00 | 0.00 | 92 | 1013.2 |
| 20260502191537 | 9 | 205 | 6.4 | 9.7 | 0.00 | 0.00 | 0.00 | 92 | 1013.2 |
| 20260502191028 | 9 | 197 | 6.4 | 8.0 | 0.00 | 0.00 | 0.00 | 92 | 1013.3 |
| 20260502190529 | 9 | 196 | 6.4 | 9.7 | 0.00 | 0.00 | 0.00 | 92 | 1013.3 |
| 20260502190028 | 9 | 202 | 6.4 | 9.7 | 0.00 | 0.00 | 0.00 | 92 | 1013.3 |
| 20260502185528 | 9 | 191 | 6.4 | 8.0 | 0.00 | 0.00 | 0.00 | 92 | 1013.4 |
| 20260502185029 | 9 | 192 | 4.8 | 8.0 | 0.00 | 0.00 | 0.00 | 92 | 1013.4 |
| 20260502184536 | 9 | 188 | 6.4 | 9.7 | 0.00 | 0.00 | 0.00 | 92 | 1013.5 |
| 20260502184028 | 9 | 182 | 6.4 | 9.7 | 0.00 | 0.00 | 0.00 | 92 | 1013.5 |
| 20260502183531 | 9 | 169 | 6.4 | 11.3 | 0.00 | 0.00 | 0.00 | 91 | 1013.5 |
| 20260502183027 | 9 | 170 | 9.7 | 12.9 | 0.00 | 0.00 | 0.00 | 91 | 1013.5 |
| 20260502182531 | 9 | 165 | 11.3 | 12.9 | 0.00 | 0.00 | 0.00 | 91 | 1013.4 |
| 20260502182027 | 9 | 164 | 9.7 | 12.9 | 0.00 | 0.00 | 0.00 | 91 | 1013.5 |
| 20260502181532 | 9 | 167 | 11.3 | 14.5 | 0.00 | 0.00 | 0.00 | 91 | 1013.5 |
| 20260502181028 | 9 | 187 | 11.3 | 14.5 | 0.00 | 0.00 | 0.00 | 91 | 1013.5 |
| 20260502180529 | 9 | 180 | 11.3 | 14.5 | 0.00 | 0.00 | 0.00 | 91 | 1013.6 |
| 20260502164021 | 10 | 260 | 6.4 | 12.9 | 0.00 | 0.00 | 0.00 | 88 | 1013.9 |
| 20260502163521 | 10 | 255 | 6.4 | 12.9 | 0.00 | 0.00 | 0.00 | 88 | 1013.9 |
| 20260502163042 | 10 | 270 | 6.4 | 12.9 | 0.00 | 0.00 | 0.00 | 87 | 1013.9 |
| 20260502162524 | 10 | 258 | 8.0 | 12.9 | 0.00 | 0.00 | 0.00 | 87 | 1014.0 |
| 20260502162029 | 10 | 258 | 9.7 | 14.5 | 0.00 | 0.00 | 0.00 | 87 | 1013.9 |
| 20260502161521 | 10 | 264 | 11.3 | 14.5 | 0.00 | 0.00 | 0.00 | 87 | 1013.9 |
| 20260502161022 | 10 | 268 | 9.7 | 14.5 | 0.00 | 0.00 | 0.00 | 87 | 1013.9 |
| 20260502160526 | 10 | 266 | 8.0 | 14.5 | 0.00 | 0.00 | 0.00 | 88 | 1014.0 |
| 20260502152018 | 10 | 235 | 14.5 | 19.3 | 0.00 | 0.00 | 0.00 | 87 | 1014.3 |
| 20260502151518 | 10 | 236 | 16.1 | 20.9 | 0.00 | 0.00 | 0.00 | 87 | 1014.4 |
| 20260502151018 | 10 | 226 | 17.7 | 20.9 | 0.00 | 0.00 | 0.00 | 87 | 1014.4 |
| 20260502150518 | 10 | 222 | 17.7 | 22.5 | 0.00 | 0.00 | 0.00 | 87 | 1014.5 |
| 20260502130509 | 11 | 205 | 3.2 | 8.0 | 0.00 | 0.00 | 0.00 | 83 | 1014.1 |
| 20260502123504 | 10 | 310 | 8.0 | 14.5 | 0.00 | 0.00 | 0.00 | 84 | 1014.9 |
| 20260502123004 | 10 | 327 | 6.4 | 9.7 | 0.00 | 0.00 | 0.00 | 85 | 1014.8 |
| 20260502122504 | 10 | 321 | 1.6 | 12.9 | 0.00 | 0.00 | 0.00 | 85 | 1014.8 |
| 20260502122004 | 10 | 295 | 6.4 | 12.9 | 0.00 | 0.00 | 0.00 | 85 | 1014.9 |
| 20260502121503 | 10 | 302 | 6.4 | 11.3 | 0.00 | 0.00 | 0.00 | 84 | 1014.8 |
| 20260502121003 | 10 | 311 | 4.8 | 16.1 | 0.00 | 0.00 | 0.00 | 84 | 1014.9 |
| 20260502120503 | 10 | 323 | 6.4 | 16.1 | 0.00 | 0.00 | 0.00 | 84 | 1015.0 |
| 20260502115503 | 10 | 295 | 9.7 | 19.3 | 0.00 | 0.00 | 0.00 | 84 | 1015.0 |
| 20260502115001 | 10 | 288 | 11.3 | 20.9 | 0.00 | 0.00 | 0.00 | 84 | 1014.9 |
| 20260502114604 | 10 | 283 | 16.1 | 20.9 | 0.00 | 0.00 | 0.00 | 83 | 1014.7 |
| 20260502114059 | 10 | 281 | 9.7 | 16.1 | 0.00 | 0.00 | 0.00 | 84 | 1014.7 |
| 20260502113601 | 10 | 288 | 8.0 | 14.5 | 0.00 | 0.00 | 0.00 | 84 | 1014.6 |
| 20260502113056 | 10 | 295 | 6.4 | 12.9 | 0.00 | 0.00 | 0.00 | 85 | 1014.6 |
| 20260502112553 | 10 | 257 | 9.7 | 14.5 | 0.00 | 0.00 | 0.00 | 85 | 1014.6 |
| 20260502112052 | 10 | 266 | 9.7 | 20.9 | 0.00 | 0.00 | 0.00 | 85 | 1014.6 |
| 20260502111552 | 10 | 266 | 12.9 | 22.5 | 0.00 | 0.00 | 0.00 | 85 | 1014.5 |
| 20260502111054 | 10 | 272 | 17.7 | 22.5 | 0.00 | 0.00 | 0.00 | 85 | 1014.7 |
| 20260502110555 | 10 | 264 | 16.1 | 22.5 | 0.00 | 0.00 | 0.00 | 85 | 1014.5 |
| 20260502110052 | 10 | 269 | 14.5 | 22.5 | 0.00 | 0.00 | 0.00 | 85 | 1014.4 |
| 20260502105553 | 10 | 267 | 11.3 | 16.1 | 0.00 | 0.00 | 0.00 | 85 | 1014.4 |
| 20260502105055 | 10 | 269 | 9.7 | 12.9 | 0.00 | 0.00 | 0.00 | 85 | 1014.4 |
| 20260502104552 | 10 | 252 | 8.0 | 12.9 | 0.00 | 0.00 | 0.00 | 85 | 1014.4 |
| 20260502104051 | 10 | 256 | 8.0 | 12.9 | 0.00 | 0.00 | 0.00 | 85 | 1014.5 |
| 20260502103551 | 10 | 300 | 4.8 | 11.3 | 0.00 | 0.00 | 0.00 | 85 | 1014.3 |
| 20260502103050 | 10 | 286 | 6.4 | 12.9 | 0.00 | 0.00 | 0.00 | 85 | 1014.3 |
| 20260502102549 | 10 | 318 | 6.4 | 16.1 | 0.00 | 0.00 | 0.00 | 85 | 1014.2 |
| 20260502102051 | 10 | 285 | 8.0 | 29.0 | 0.00 | 0.00 | 0.00 | 85 | 1014.2 |
| 20260502101550 | 10 | 274 | 12.9 | 29.0 | 0.00 | 0.00 | 0.00 | 85 | 1014.2 |
| 20260502101053 | 10 | 247 | 14.5 | 29.0 | 0.00 | 0.00 | 0.00 | 86 | 1014.2 |
| 20260502100549 | 10 | 248 | 19.3 | 27.4 | 0.00 | 0.00 | 0.00 | 86 | 1014.0 |
| 20260502091044 | 10 | 245 | 14.5 | 24.1 | 0.00 | 0.00 | 0.00 | 83 | 1013.7 |
| 20260502090544 | 10 | 244 | 16.1 | 25.7 | 0.00 | 0.00 | 0.00 | 83 | 1013.8 |
| 20260502071038 | 10 | 255 | 11.3 | 20.9 | 0.00 | 0.00 | 0.00 | 81 | 1014.1 |
| 20260502070536 | 10 | 257 | 14.5 | 20.9 | 0.00 | 0.00 | 0.00 | 81 | 1014.1 |
| 20260502070047 | 10 | 257 | 12.9 | 22.5 | 0.00 | 0.00 | 0.00 | 81 | 1014.3 |
| 20260502065535 | 10 | 265 | 17.7 | 22.5 | 0.00 | 0.00 | 0.00 | 81 | 1014.4 |
| 20260502065035 | 10 | 249 | 12.9 | 24.1 | 0.00 | 0.00 | 0.00 | 81 | 1014.4 |
| 20260502064544 | 10 | 243 | 14.5 | 24.1 | 0.00 | 0.00 | 0.00 | 81 | 1014.4 |
| 20260502064035 | 10 | 268 | 14.5 | 24.1 | 0.00 | 0.00 | 0.00 | 81 | 1014.4 |
| 20260502063535 | 10 | 266 | 12.9 | 27.4 | 0.00 | 0.00 | 0.00 | 80 | 1014.4 |
| 20260502063036 | 10 | 247 | 20.9 | 27.4 | 0.00 | 0.00 | 0.00 | 80 | 1014.2 |
| 20260502062533 | 10 | 242 | 17.7 | 22.5 | 0.00 | 0.00 | 0.00 | 80 | 1014.2 |
| 20260502062031 | 10 | 252 | 14.5 | 22.5 | 0.00 | 0.00 | 0.00 | 80 | 1014.3 |
| 20260502061531 | 10 | 257 | 16.1 | 22.5 | 0.00 | 0.00 | 0.00 | 80 | 1014.3 |
| 20260502061030 | 10 | 252 | 12.9 | 20.9 | 0.00 | 0.00 | 0.00 | 80 | 1014.3 |
| 20260502060529 | 10 | 265 | 12.9 | 20.9 | 0.00 | 0.00 | 0.00 | 79 | 1014.5 |
| 20260502060030 | 10 | 274 | 14.5 | 20.9 | 0.00 | 0.00 | 0.00 | 79 | 1014.5 |
| 20260502055529 | 10 | 252 | 11.3 | 19.3 | 0.00 | 0.00 | 0.00 | 79 | 1014.5 |
| 20260502055028 | 10 | 236 | 16.1 | 19.3 | 0.00 | 0.00 | 0.00 | 79 | 1014.4 |
| 20260502054528 | 10 | 250 | 11.3 | 19.3 | 0.00 | 0.00 | 0.00 | 79 | 1014.3 |
| 20260502054027 | 10 | 253 | 12.9 | 20.9 | 0.00 | 0.00 | 0.00 | 79 | 1014.4 |
| 20260502053526 | 10 | 247 | 11.3 | 22.5 | 0.00 | 0.00 | 0.00 | 78 | 1014.5 |
| 20260502053024 | 10 | 253 | 16.1 | 24.1 | 0.00 | 0.00 | 0.00 | 78 | 1014.6 |
| 20260502052524 | 10 | 264 | 14.5 | 24.1 | 0.00 | 0.00 | 0.00 | 78 | 1014.7 |
| 20260502052024 | 10 | 281 | 14.5 | 25.7 | 0.00 | 0.00 | 0.00 | 77 | 1014.6 |
| 20260502051526 | 10 | 264 | 17.7 | 25.7 | 0.00 | 0.00 | 0.00 | 77 | 1014.7 |
| 20260502051021 | 10 | 264 | 16.1 | 24.1 | 0.00 | 0.00 | 0.00 | 77 | 1014.8 |
| 20260502050522 | 10 | 248 | 12.9 | 24.1 | 0.00 | 0.00 | 0.00 | 77 | 1014.8 |
| 20260502050020 | 10 | 255 | 16.1 | 22.5 | 0.00 | 0.00 | 0.00 | 76 | 1014.8 |
| 20260502045520 | 10 | 253 | 12.9 | 22.5 | 0.00 | 0.00 | 0.00 | 76 | 1014.9 |
| 20260502045024 | 10 | 247 | 14.5 | 22.5 | 0.00 | 0.00 | 0.00 | 76 | 1015.0 |
| 20260502044519 | 10 | 249 | 14.5 | 20.9 | 0.00 | 0.00 | 0.00 | 76 | 1015.2 |
| 20260502044018 | 10 | 255 | 14.5 | 20.9 | 0.00 | 0.00 | 0.00 | 75 | 1015.1 |
| 20260502043518 | 10 | 257 | 12.9 | 19.3 | 0.00 | 0.00 | 0.00 | 76 | 1015.0 |
| 20260502043016 | 10 | 264 | 9.7 | 19.3 | 0.00 | 0.00 | 0.00 | 76 | 1014.9 |
| 20260502042515 | 10 | 253 | 14.5 | 19.3 | 0.00 | 0.00 | 0.00 | 75 | 1014.8 |
| 20260502042013 | 10 | 258 | 11.3 | 20.9 | 0.00 | 0.00 | 0.00 | 75 | 1014.8 |
| 20260502041515 | 10 | 259 | 16.1 | 25.7 | 0.00 | 0.00 | 0.00 | 74 | 1014.9 |
| 20260502041012 | 10 | 258 | 16.1 | 25.7 | 0.00 | 0.00 | 0.00 | 73 | 1014.9 |
| 20260502040511 | 10 | 269 | 16.1 | 24.1 | 0.00 | 0.00 | 0.00 | 72 | 1015.0 |
| 20260502040012 | 10 | 243 | 17.7 | 22.5 | 0.00 | 0.00 | 0.00 | 72 | 1014.9 |
| 20260502035511 | 10 | 259 | 14.5 | 19.3 | 0.00 | 0.00 | 0.00 | 73 | 1015.0 |
| 20260502035010 | 10 | 240 | 9.7 | 12.9 | 0.00 | 0.00 | 0.00 | 75 | 1015.1 |
| 20260502034510 | 10 | 243 | 6.4 | 9.7 | 0.00 | 0.00 | 0.00 | 76 | 1015.2 |
| 20260502034012 | 9 | 262 | 4.8 | 11.3 | 0.00 | 0.00 | 0.00 | 77 | 1015.2 |
| 20260502033510 | 9 | 306 | 6.4 | 11.3 | 0.00 | 0.00 | 0.00 | 77 | 1015.3 |
| 20260502033013 | 9 | 353 | 3.2 | 8.0 | 0.00 | 0.00 | 0.00 | 76 | 1015.4 |
| 20260502032509 | 10 | 3 | 4.8 | 12.9 | 0.00 | 0.00 | 0.00 | 75 | 1015.2 |
| 20260502032009 | 10 | 319 | 4.8 | 19.3 | 0.00 | 0.00 | 0.00 | 74 | 1015.3 |
| 20260502031509 | 10 | 270 | 12.9 | 19.3 | 0.00 | 0.00 | 0.00 | 75 | 1015.4 |
| 20260502031008 | 10 | 264 | 9.7 | 16.1 | 0.00 | 0.00 | 0.00 | 77 | 1015.4 |
| 20260502030508 | 10 | 275 | 6.4 | 11.3 | 0.00 | 0.00 | 0.00 | 77 | 1015.3 |
| 20260502030010 | 10 | 343 | 8.0 | 11.3 | 0.00 | 0.00 | 0.00 | 76 | 1015.4 |
| 20260502025507 | 10 | 332 | 4.8 | 11.3 | 0.00 | 0.00 | 0.00 | 74 | 1015.4 |
| 20260502025006 | 10 | 285 | 8.0 | 17.7 | 0.00 | 0.00 | 0.00 | 74 | 1015.2 |
| 20260502024511 | 11 | 292 | 8.0 | 19.3 | 0.00 | 0.00 | 0.00 | 75 | 1015.0 |
| 20260502024005 | 11 | 258 | 9.7 | 19.3 | 0.00 | 0.00 | 0.00 | 75 | 1014.9 |
| 20260502023506 | 10 | 265 | 9.7 | 17.7 | 0.00 | 0.00 | 0.00 | 74 | 1014.9 |
| 20260502023005 | 11 | 288 | 11.3 | 22.5 | 0.00 | 0.00 | 0.00 | 72 | 1015.0 |
| 20260502022503 | 11 | 272 | 12.9 | 24.1 | 0.00 | 0.00 | 0.00 | 72 | 1014.7 |
| 20260502022003 | 11 | 234 | 19.3 | 24.1 | 0.00 | 0.00 | 0.00 | 71 | 1014.6 |
| 20260502021503 | 10 | 257 | 19.3 | 24.1 | 0.00 | 0.00 | 0.00 | 73 | 1014.6 |
| 20260502021003 | 10 | 251 | 17.7 | 22.5 | 0.00 | 0.00 | 0.00 | 74 | 1014.6 |
| 20260502020503 | 10 | 257 | 17.7 | 22.5 | 0.00 | 0.00 | 0.00 | 73 | 1014.6 |
| 20260502020003 | 11 | 247 | 17.7 | 24.1 | 0.00 | 0.00 | 0.00 | 72 | 1014.6 |
| 20260502015503 | 11 | 248 | 19.3 | 25.7 | 0.00 | 0.00 | 0.00 | 72 | 1014.6 |
| 20260502015003 | 11 | 240 | 19.3 | 25.7 | 0.00 | 0.00 | 0.00 | 71 | 1014.6 |
| 20260502014512 | 11 | 249 | 17.7 | 24.1 | 0.00 | 0.00 | 0.00 | 72 | 1014.7 |
| 20260502014005 | 11 | 264 | 16.1 | 25.7 | 0.00 | 0.00 | 0.00 | 73 | 1014.7 |
| 20260502013504 | 11 | 257 | 16.1 | 25.7 | 0.00 | 0.00 | 0.00 | 72 | 1014.7 |
| 20260502013002 | 11 | 262 | 17.7 | 29.0 | 0.00 | 0.00 | 0.00 | 71 | 1014.8 |
| 20260502012502 | 11 | 266 | 20.9 | 29.0 | 0.00 | 0.00 | 0.00 | 71 | 1014.8 |
| 20260502012002 | 11 | 262 | 20.9 | 30.6 | 0.00 | 0.00 | 0.00 | 71 | 1014.8 |
| 20260502011502 | 11 | 270 | 22.5 | 30.6 | 0.00 | 0.00 | 0.00 | 70 | 1014.8 |
| 20260502011101 | 11 | 264 | 20.9 | 30.6 | 0.00 | 0.00 | 0.00 | 71 | 1014.8 |
| 20260502010501 | 11 | 272 | 22.5 | 32.2 | 0.00 | 0.00 | 0.00 | 70 | 1014.8 |
| 20260502005559 | 11 | 267 | 17.7 | 35.4 | 0.00 | 0.00 | 0.00 | 70 | 1014.6 |
| 20260502005059 | 11 | 292 | 24.1 | 35.4 | 0.00 | 0.00 | 0.00 | 69 | 1014.5 |
| 20260502004605 | 11 | 269 | 19.3 | 32.2 | 0.00 | 0.00 | 0.00 | 70 | 1014.5 |
| 20260502004059 | 11 | 287 | 22.5 | 33.8 | 0.00 | 0.00 | 0.00 | 69 | 1014.5 |
| 20260502003601 | 11 | 250 | 22.5 | 33.8 | 0.00 | 0.00 | 0.00 | 69 | 1014.4 |
| 20260502003058 | 11 | 252 | 24.1 | 33.8 | 0.00 | 0.00 | 0.00 | 69 | 1014.3 |
| 20260502002558 | 11 | 266 | 24.1 | 32.2 | 0.00 | 0.00 | 0.00 | 69 | 1014.2 |
| 20260502002058 | 11 | 284 | 22.5 | 38.6 | 0.00 | 0.00 | 0.00 | 69 | 1014.2 |
| 20260502001557 | 11 | 266 | 25.7 | 38.6 | 0.00 | 0.00 | 0.00 | 68 | 1014.1 |
| 20260502001101 | 11 | 259 | 27.4 | 35.4 | 0.00 | 0.00 | 0.00 | 68 | 1014.0 |
| 20260502000557 | 11 | 264 | 22.5 | 33.8 | 0.00 | 0.00 | 0.00 | 69 | 1013.9 |
| 20260502000106 | 11 | 260 | 22.5 | 33.8 | 0.00 | 0.00 | 0.00 | 68 | 1013.8 |
| 20260501235557 | 11 | 268 | 19.3 | 32.2 | 0.00 | 0.00 | 0.00 | 69 | 1013.7 |
| 20260501235056 | 11 | 251 | 22.5 | 35.4 | 0.00 | 0.00 | 0.00 | 67 | 1013.6 |
| 20260501234556 | 11 | 233 | 24.1 | 35.4 | 0.00 | 0.00 | 0.00 | 65 | 1013.4 |
| 20260501234056 | 11 | 277 | 22.5 | 33.8 | 0.00 | 0.00 | 0.00 | 65 | 1013.3 |
| 20260501233556 | 11 | 274 | 24.1 | 33.8 | 0.00 | 0.00 | 0.00 | 65 | 1013.3 |
| 20260501233056 | 11 | 270 | 25.7 | 35.4 | 0.00 | 0.00 | 0.00 | 65 | 1013.3 |
| 20260501232555 | 11 | 262 | 19.3 | 38.6 | 0.00 | 0.00 | 0.00 | 65 | 1013.3 |
| 20260501232055 | 12 | 271 | 27.4 | 38.6 | 0.00 | 0.00 | 0.00 | 64 | 1013.3 |
| 20260501231555 | 12 | 273 | 25.7 | 38.6 | 0.00 | 0.00 | 0.00 | 63 | 1013.2 |
| 20260501231055 | 12 | 251 | 24.1 | 37.0 | 0.00 | 0.00 | 0.00 | 64 | 1013.2 |
| 20260501230555 | 12 | 276 | 25.7 | 37.0 | 0.00 | 0.00 | 0.00 | 66 | 1013.1 |
| 20260501230105 | 12 | 278 | 22.5 | 37.0 | 0.00 | 0.00 | 0.00 | 65 | 1013.0 |
| 20260501225554 | 13 | 264 | 24.1 | 33.8 | 0.00 | 0.00 | 0.00 | 62 | 1013.0 |
| 20260501225054 | 13 | 257 | 24.1 | 32.2 | 0.00 | 0.00 | 0.00 | 59 | 1013.0 |
| 20260501224555 | 13 | 270 | 20.9 | 30.6 | 0.00 | 0.00 | 0.00 | 58 | 1012.8 |
| 20260501224054 | 13 | 260 | 20.9 | 32.2 | 0.00 | 0.00 | 0.00 | 60 | 1012.8 |
| 20260501223555 | 13 | 272 | 24.1 | 33.8 | 0.00 | 0.00 | 0.00 | 59 | 1012.9 |
| 20260501223100 | 13 | 255 | 24.1 | 32.2 | 0.00 | 0.00 | 0.00 | 57 | 1012.7 |
| 20260501222553 | 13 | 273 | 22.5 | 33.8 | 0.00 | 0.00 | 0.00 | 57 | 1012.7 |
| 20260501222053 | 13 | 262 | 20.9 | 33.8 | 0.00 | 0.00 | 0.00 | 56 | 1012.8 |
| 20260501221558 | 14 | 257 | 22.5 | 29.0 | 0.00 | 0.00 | 0.00 | 54 | 1012.7 |
| 20260501221052 | 14 | 262 | 17.7 | 29.0 | 0.00 | 0.00 | 0.00 | 54 | 1012.8 |
| 20260501220552 | 14 | 250 | 19.3 | 30.6 | 0.00 | 0.00 | 0.00 | 54 | 1012.7 |
| 20260501220100 | 14 | 262 | 20.9 | 30.6 | 0.00 | 0.00 | 0.00 | 55 | 1012.8 |
| 20260501215552 | 14 | 271 | 20.9 | 29.0 | 0.00 | 0.00 | 0.00 | 54 | 1012.8 |
| 20260501215052 | 14 | 244 | 16.1 | 27.4 | 0.00 | 0.00 | 0.00 | 53 | 1012.8 |